sensor_id;sensor_type;location;lat;lon;timestamp;temperature;humidity
27645;DHT22;15054;57.152;-2.118;2022-10-16T00:01:30;7.80;99.90
27645;DHT22;15054;57.152;-2.118;2022-10-16T00:03:59;7.80;99.90
27645;DHT22;15054;57.152;-2.118;2022-10-16T00:06:28;7.80;99.90
27645;DHT22;15054;57.152;-2.118;2022-10-16T00:08:56;7.90;99.90
27645;DHT22;15054;57.152;-2.118;2022-10-16T00:11:25;7.80;99.90
27645;DHT22;15054;57.152;-2.118;2022-10-16T00:13:57;7.80;99.90
27645;DHT22;15054;57.152;-2.118;2022-10-16T00:16:24;7.70;99.90
27645;DHT22;15054;57.152;-2.118;2022-10-16T00:18:52;7.70;99.90
27645;DHT22;15054;57.152;-2.118;2022-10-16T00:21:22;7.70;99.90
27645;DHT22;15054;57.152;-2.118;2022-10-16T00:23:53;7.70;99.90
27645;DHT22;15054;57.152;-2.118;2022-10-16T00:26:21;7.60;99.90
27645;DHT22;15054;57.152;-2.118;2022-10-16T00:28:49;7.60;99.90
27645;DHT22;15054;57.152;-2.118;2022-10-16T00:31:20;7.70;99.90
27645;DHT22;15054;57.152;-2.118;2022-10-16T00:33:47;7.60;99.90
27645;DHT22;15054;57.152;-2.118;2022-10-16T00:36:17;7.60;99.90
27645;DHT22;15054;57.152;-2.118;2022-10-16T00:38:45;7.60;99.90
27645;DHT22;15054;57.152;-2.118;2022-10-16T00:41:15;7.60;99.90
27645;DHT22;15054;57.152;-2.118;2022-10-16T00:43:46;7.60;99.90
27645;DHT22;15054;57.152;-2.118;2022-10-16T00:51:34;7.50;99.90
27645;DHT22;15054;57.152;-2.118;2022-10-16T00:54:04;7.50;99.90
27645;DHT22;15054;57.152;-2.118;2022-10-16T00:56:33;7.50;99.90
27645;DHT22;15054;57.152;-2.118;2022-10-16T00:59:03;7.40;99.90
27645;DHT22;15054;57.152;-2.118;2022-10-16T01:01:33;7.40;99.90
27645;DHT22;15054;57.152;-2.118;2022-10-16T01:04:00;7.40;99.90
27645;DHT22;15054;57.152;-2.118;2022-10-16T01:06:45;7.40;99.90
27645;DHT22;15054;57.152;-2.118;2022-10-16T01:09:27;7.30;99.90
27645;DHT22;15054;57.152;-2.118;2022-10-16T01:12:10;7.30;99.90
27645;DHT22;15054;57.152;-2.118;2022-10-16T01:15:20;7.30;99.90
27645;DHT22;15054;57.152;-2.118;2022-10-16T01:26:09;7.20;99.90
27645;DHT22;15054;57.152;-2.118;2022-10-16T01:29:04;7.20;99.90
27645;DHT22;15054;57.152;-2.118;2022-10-16T01:31:32;7.20;99.90
27645;DHT22;15054;57.152;-2.118;2022-10-16T01:34:06;7.30;99.90
27645;DHT22;15054;57.152;-2.118;2022-10-16T01:37:02;7.30;99.90
27645;DHT22;15054;57.152;-2.118;2022-10-16T01:39:34;7.30;99.90
27645;DHT22;15054;57.152;-2.118;2022-10-16T01:42:20;7.30;99.90
27645;DHT22;15054;57.152;-2.118;2022-10-16T01:44:51;7.30;99.90
27645;DHT22;15054;57.152;-2.118;2022-10-16T01:47:23;7.30;99.90
27645;DHT22;15054;57.152;-2.118;2022-10-16T01:49:53;7.30;99.90
27645;DHT22;15054;57.152;-2.118;2022-10-16T01:52:23;7.30;99.90
27645;DHT22;15054;57.152;-2.118;2022-10-16T01:54:54;7.30;99.90
27645;DHT22;15054;57.152;-2.118;2022-10-16T01:57:24;7.30;99.90
27645;DHT22;15054;57.152;-2.118;2022-10-16T01:59:54;7.30;99.90
27645;DHT22;15054;57.152;-2.118;2022-10-16T02:02:26;7.30;99.90
27645;DHT22;15054;57.152;-2.118;2022-10-16T02:05:01;7.30;99.90
27645;DHT22;15054;57.152;-2.118;2022-10-16T02:07:28;7.30;99.90
27645;DHT22;15054;57.152;-2.118;2022-10-16T02:09:55;7.20;99.90
27645;DHT22;15054;57.152;-2.118;2022-10-16T02:12:33;7.20;99.90
27645;DHT22;15054;57.152;-2.118;2022-10-16T02:15:03;7.20;99.90
27645;DHT22;15054;57.152;-2.118;2022-10-16T02:17:30;7.20;99.90
27645;DHT22;15054;57.152;-2.118;2022-10-16T02:19:58;7.20;99.90
27645;DHT22;15054;57.152;-2.118;2022-10-16T02:22:46;7.10;99.90
27645;DHT22;15054;57.152;-2.118;2022-10-16T02:25:36;7.20;99.90
27645;DHT22;15054;57.152;-2.118;2022-10-16T02:30:49;7.20;99.90
27645;DHT22;15054;57.152;-2.118;2022-10-16T02:33:18;7.20;99.90
27645;DHT22;15054;57.152;-2.118;2022-10-16T02:35:48;7.20;99.90
27645;DHT22;15054;57.152;-2.118;2022-10-16T02:38:18;7.20;99.90
27645;DHT22;15054;57.152;-2.118;2022-10-16T02:40:45;7.20;99.90
27645;DHT22;15054;57.152;-2.118;2022-10-16T02:43:13;7.20;99.90
27645;DHT22;15054;57.152;-2.118;2022-10-16T02:45:40;7.20;99.90
27645;DHT22;15054;57.152;-2.118;2022-10-16T02:48:07;7.30;99.90
27645;DHT22;15054;57.152;-2.118;2022-10-16T02:50:34;7.30;99.90
27645;DHT22;15054;57.152;-2.118;2022-10-16T02:53:02;7.30;99.90
27645;DHT22;15054;57.152;-2.118;2022-10-16T02:55:29;7.30;99.90
27645;DHT22;15054;57.152;-2.118;2022-10-16T02:57:56;7.20;99.90
27645;DHT22;15054;57.152;-2.118;2022-10-16T03:00:23;7.20;99.90
27645;DHT22;15054;57.152;-2.118;2022-10-16T03:02:51;7.20;99.90
27645;DHT22;15054;57.152;-2.118;2022-10-16T03:05:18;7.10;99.90
27645;DHT22;15054;57.152;-2.118;2022-10-16T03:07:45;7.10;99.90
27645;DHT22;15054;57.152;-2.118;2022-10-16T03:10:12;7.00;99.90
27645;DHT22;15054;57.152;-2.118;2022-10-16T03:12:39;7.00;99.90
27645;DHT22;15054;57.152;-2.118;2022-10-16T03:15:07;7.00;99.90
27645;DHT22;15054;57.152;-2.118;2022-10-16T03:17:35;6.90;99.90
27645;DHT22;15054;57.152;-2.118;2022-10-16T03:20:03;6.90;99.90
27645;DHT22;15054;57.152;-2.118;2022-10-16T03:22:30;6.80;99.90
27645;DHT22;15054;57.152;-2.118;2022-10-16T03:24:57;6.80;99.90
27645;DHT22;15054;57.152;-2.118;2022-10-16T03:27:24;6.80;99.90
27645;DHT22;15054;57.152;-2.118;2022-10-16T03:29:53;6.80;99.90
27645;DHT22;15054;57.152;-2.118;2022-10-16T03:32:20;6.70;99.90
27645;DHT22;15054;57.152;-2.118;2022-10-16T03:34:47;6.60;99.90
27645;DHT22;15054;57.152;-2.118;2022-10-16T03:37:14;6.50;99.90
27645;DHT22;15054;57.152;-2.118;2022-10-16T03:39:41;6.40;99.90
27645;DHT22;15054;57.152;-2.118;2022-10-16T03:42:08;6.40;99.90
27645;DHT22;15054;57.152;-2.118;2022-10-16T03:44:36;6.40;99.90
27645;DHT22;15054;57.152;-2.118;2022-10-16T03:47:03;6.30;99.90
27645;DHT22;15054;57.152;-2.118;2022-10-16T03:49:30;6.20;99.90
27645;DHT22;15054;57.152;-2.118;2022-10-16T03:51:57;6.20;99.90
27645;DHT22;15054;57.152;-2.118;2022-10-16T03:54:24;6.10;99.90
27645;DHT22;15054;57.152;-2.118;2022-10-16T03:56:51;6.00;99.90
27645;DHT22;15054;57.152;-2.118;2022-10-16T03:59:19;6.00;99.90
27645;DHT22;15054;57.152;-2.118;2022-10-16T04:01:46;6.10;99.90
27645;DHT22;15054;57.152;-2.118;2022-10-16T04:04:13;6.00;99.90
27645;DHT22;15054;57.152;-2.118;2022-10-16T04:06:40;6.00;99.90
27645;DHT22;15054;57.152;-2.118;2022-10-16T04:09:07;6.00;99.90
27645;DHT22;15054;57.152;-2.118;2022-10-16T04:11:34;6.00;99.90
27645;DHT22;15054;57.152;-2.118;2022-10-16T04:14:01;5.90;99.90
27645;DHT22;15054;57.152;-2.118;2022-10-16T04:16:29;5.90;99.90
27645;DHT22;15054;57.152;-2.118;2022-10-16T04:18:56;5.80;99.90
27645;DHT22;15054;57.152;-2.118;2022-10-16T04:21:23;5.80;99.90
27645;DHT22;15054;57.152;-2.118;2022-10-16T04:23:50;5.80;99.90
27645;DHT22;15054;57.152;-2.118;2022-10-16T04:26:18;5.70;99.90
27645;DHT22;15054;57.152;-2.118;2022-10-16T04:28:45;5.60;99.90
27645;DHT22;15054;57.152;-2.118;2022-10-16T04:31:12;5.60;99.90
27645;DHT22;15054;57.152;-2.118;2022-10-16T04:33:42;5.60;99.90
27645;DHT22;15054;57.152;-2.118;2022-10-16T04:36:09;5.60;99.90
27645;DHT22;15054;57.152;-2.118;2022-10-16T04:38:36;5.60;99.90
27645;DHT22;15054;57.152;-2.118;2022-10-16T04:41:04;5.60;99.90
27645;DHT22;15054;57.152;-2.118;2022-10-16T04:43:32;5.60;99.90
27645;DHT22;15054;57.152;-2.118;2022-10-16T04:45:59;5.70;99.90
27645;DHT22;15054;57.152;-2.118;2022-10-16T04:48:27;5.70;99.90
27645;DHT22;15054;57.152;-2.118;2022-10-16T04:50:54;5.70;99.90
27645;DHT22;15054;57.152;-2.118;2022-10-16T04:53:21;5.60;99.90
27645;DHT22;15054;57.152;-2.118;2022-10-16T04:55:49;5.60;99.90
27645;DHT22;15054;57.152;-2.118;2022-10-16T04:58:17;5.50;99.90
27645;DHT22;15054;57.152;-2.118;2022-10-16T05:00:45;5.40;99.90
27645;DHT22;15054;57.152;-2.118;2022-10-16T05:03:13;5.30;99.90
27645;DHT22;15054;57.152;-2.118;2022-10-16T05:05:48;5.30;99.90
27645;DHT22;15054;57.152;-2.118;2022-10-16T05:08:17;5.20;99.90
27645;DHT22;15054;57.152;-2.118;2022-10-16T05:10:45;5.10;99.90
27645;DHT22;15054;57.152;-2.118;2022-10-16T05:13:12;5.10;99.90
27645;DHT22;15054;57.152;-2.118;2022-10-16T05:15:46;5.00;99.90
27645;DHT22;15054;57.152;-2.118;2022-10-16T05:18:13;5.00;99.90
27645;DHT22;15054;57.152;-2.118;2022-10-16T05:20:42;4.90;99.90
27645;DHT22;15054;57.152;-2.118;2022-10-16T05:23:09;4.90;99.90
27645;DHT22;15054;57.152;-2.118;2022-10-16T05:25:39;4.90;99.90
27645;DHT22;15054;57.152;-2.118;2022-10-16T05:28:06;4.90;99.90
27645;DHT22;15054;57.152;-2.118;2022-10-16T05:30:37;4.90;99.90
27645;DHT22;15054;57.152;-2.118;2022-10-16T05:33:05;4.90;99.90
27645;DHT22;15054;57.152;-2.118;2022-10-16T05:35:34;4.80;99.90
27645;DHT22;15054;57.152;-2.118;2022-10-16T05:38:01;4.90;99.90
27645;DHT22;15054;57.152;-2.118;2022-10-16T05:40:28;4.90;99.90
27645;DHT22;15054;57.152;-2.118;2022-10-16T05:42:55;4.90;99.90
27645;DHT22;15054;57.152;-2.118;2022-10-16T05:45:23;5.00;99.90
27645;DHT22;15054;57.152;-2.118;2022-10-16T05:47:50;5.00;99.90
27645;DHT22;15054;57.152;-2.118;2022-10-16T05:50:18;4.90;99.90
27645;DHT22;15054;57.152;-2.118;2022-10-16T05:52:45;5.00;99.90
27645;DHT22;15054;57.152;-2.118;2022-10-16T05:55:12;4.90;99.90
27645;DHT22;15054;57.152;-2.118;2022-10-16T05:57:39;4.90;99.90
27645;DHT22;15054;57.152;-2.118;2022-10-16T06:00:06;4.90;99.90
27645;DHT22;15054;57.152;-2.118;2022-10-16T06:02:38;4.80;99.90
27645;DHT22;15054;57.152;-2.118;2022-10-16T06:05:05;4.80;99.90
27645;DHT22;15054;57.152;-2.118;2022-10-16T06:07:36;4.80;99.90
27645;DHT22;15054;57.152;-2.118;2022-10-16T06:10:04;4.80;99.90
27645;DHT22;15054;57.152;-2.118;2022-10-16T06:12:31;4.80;99.90
27645;DHT22;15054;57.152;-2.118;2022-10-16T06:14:58;4.80;99.90
27645;DHT22;15054;57.152;-2.118;2022-10-16T06:17:25;4.70;99.90
27645;DHT22;15054;57.152;-2.118;2022-10-16T06:19:53;4.70;99.90
27645;DHT22;15054;57.152;-2.118;2022-10-16T06:22:20;4.70;99.90
27645;DHT22;15054;57.152;-2.118;2022-10-16T06:24:47;4.70;99.90
27645;DHT22;15054;57.152;-2.118;2022-10-16T06:27:14;4.70;99.90
27645;DHT22;15054;57.152;-2.118;2022-10-16T06:29:41;4.70;99.90
27645;DHT22;15054;57.152;-2.118;2022-10-16T06:32:09;4.70;99.90
27645;DHT22;15054;57.152;-2.118;2022-10-16T06:34:37;4.70;99.90
27645;DHT22;15054;57.152;-2.118;2022-10-16T06:37:09;4.70;99.90
27645;DHT22;15054;57.152;-2.118;2022-10-16T06:39:36;4.80;99.90
27645;DHT22;15054;57.152;-2.118;2022-10-16T06:42:03;4.80;99.90
27645;DHT22;15054;57.152;-2.118;2022-10-16T06:44:35;4.70;99.90
27645;DHT22;15054;57.152;-2.118;2022-10-16T06:47:02;4.70;99.90
27645;DHT22;15054;57.152;-2.118;2022-10-16T06:49:29;4.60;99.90
